createdAt,value
2022-10-16T00:00:05.643Z,0.00
2022-10-16T00:01:05.629Z,0.00
2022-10-16T00:02:05.656Z,0.00
2022-10-16T00:03:05.636Z,0.00
2022-10-16T00:04:05.593Z,0.00
2022-10-16T00:05:05.605Z,0.00
2022-10-16T00:06:05.575Z,0.00
2022-10-16T00:07:05.572Z,0.00
2022-10-16T00:08:05.562Z,0.00
2022-10-16T00:09:05.560Z,0.00
2022-10-16T00:10:05.541Z,0.00
2022-10-16T00:11:05.523Z,0.00
2022-10-16T00:12:05.569Z,0.00
2022-10-16T00:13:05.529Z,0.00
2022-10-16T00:14:05.498Z,0.00
2022-10-16T00:15:05.476Z,0.00
2022-10-16T00:16:05.468Z,0.00
2022-10-16T00:17:05.468Z,0.00
2022-10-16T00:18:05.433Z,0.00
2022-10-16T00:19:05.432Z,0.00
2022-10-16T00:20:05.434Z,0.00
2022-10-16T00:21:05.541Z,0.00
2022-10-16T00:22:05.422Z,0.00
2022-10-16T00:23:05.406Z,0.00
2022-10-16T00:24:05.370Z,0.00
2022-10-16T00:25:05.376Z,0.00
2022-10-16T00:26:05.368Z,0.00
2022-10-16T00:27:05.347Z,0.00
2022-10-16T00:28:05.320Z,0.00
2022-10-16T00:29:05.364Z,0.00
2022-10-16T00:30:05.293Z,0.00
2022-10-16T00:31:05.309Z,0.00
2022-10-16T00:32:05.268Z,0.00
2022-10-16T00:33:05.280Z,0.00
2022-10-16T00:34:05.243Z,0.00
2022-10-16T00:35:05.240Z,0.00
2022-10-16T00:36:05.232Z,0.00
2022-10-16T00:37:05.240Z,0.00
2022-10-16T00:38:05.201Z,0.00
2022-10-16T00:39:05.198Z,0.00
2022-10-16T00:40:05.204Z,0.00
2022-10-16T00:41:05.181Z,0.00
2022-10-16T00:42:05.174Z,0.00
2022-10-16T00:43:05.175Z,0.00
2022-10-16T00:44:05.141Z,0.00
2022-10-16T00:45:05.161Z,0.00
2022-10-16T00:46:05.137Z,0.00
2022-10-16T00:47:05.100Z,0.00
2022-10-16T00:49:05.084Z,0.00
2022-10-16T00:50:05.067Z,0.00
2022-10-16T00:51:05.074Z,0.00
2022-10-16T00:52:05.045Z,0.00
2022-10-16T00:53:05.054Z,0.00
2022-10-16T00:54:05.013Z,0.00
2022-10-16T00:55:05.029Z,0.00
2022-10-16T00:56:05.025Z,0.00
2022-10-16T00:57:05.085Z,0.00
2022-10-16T00:58:04.974Z,0.00
2022-10-16T00:59:04.975Z,0.00
2022-10-16T01:00:04.974Z,0.00
2022-10-16T01:01:05.071Z,0.00
2022-10-16T01:02:04.993Z,0.00
2022-10-16T01:03:05.173Z,0.00
2022-10-16T01:04:05.002Z,0.00
2022-10-16T01:05:04.961Z,0.00
2022-10-16T01:06:04.934Z,0.00
2022-10-16T01:07:04.997Z,0.00
2022-10-16T01:08:05.186Z,0.00
2022-10-16T01:09:04.937Z,0.00
2022-10-16T01:10:05.013Z,0.00
2022-10-16T01:11:05.013Z,0.00
2022-10-16T01:12:04.958Z,0.00
2022-10-16T01:13:05.197Z,0.00
2022-10-16T01:14:05.058Z,0.00
2022-10-16T01:15:04.910Z,0.00
2022-10-16T01:16:04.855Z,0.00
2022-10-16T01:17:04.790Z,0.00
2022-10-16T01:18:05.038Z,0.00
2022-10-16T01:19:05.062Z,0.00
2022-10-16T01:20:04.726Z,0.00
2022-10-16T01:21:04.798Z,0.00
2022-10-16T01:22:05.480Z,0.00
2022-10-16T01:23:04.699Z,0.00
2022-10-16T01:24:04.678Z,0.00
2022-10-16T01:25:04.679Z,0.00
2022-10-16T01:26:04.674Z,0.00
2022-10-16T01:27:04.679Z,0.00
2022-10-16T01:28:04.646Z,0.00
2022-10-16T01:29:04.692Z,0.00
2022-10-16T01:30:04.666Z,0.00
2022-10-16T01:31:04.618Z,0.00
2022-10-16T01:32:04.619Z,0.00
2022-10-16T01:33:05.202Z,0.00
2022-10-16T01:34:04.585Z,0.00
2022-10-16T01:35:04.564Z,0.00
2022-10-16T01:36:04.565Z,0.00
2022-10-16T01:37:04.558Z,0.00
2022-10-16T01:38:04.531Z,0.00
2022-10-16T01:39:04.563Z,0.00
2022-10-16T01:40:04.618Z,0.00
2022-10-16T01:41:04.655Z,0.00
2022-10-16T01:42:04.742Z,0.00
2022-10-16T01:43:04.703Z,0.00
2022-10-16T01:44:04.537Z,0.00
2022-10-16T01:45:04.471Z,0.00
2022-10-16T01:46:04.458Z,0.00
2022-10-16T01:47:04.471Z,0.00
2022-10-16T01:48:04.422Z,0.00
2022-10-16T01:49:04.423Z,0.00
2022-10-16T01:50:04.387Z,0.00
2022-10-16T01:51:04.378Z,0.00
2022-10-16T01:52:04.392Z,0.00
2022-10-16T01:53:04.367Z,0.00
2022-10-16T01:54:04.362Z,0.00
2022-10-16T01:55:04.342Z,0.00
2022-10-16T01:56:04.330Z,0.00
2022-10-16T01:57:04.330Z,0.00
2022-10-16T01:58:04.303Z,0.00
2022-10-16T01:59:04.291Z,0.00
2022-10-16T02:00:04.322Z,0.00
2022-10-16T02:01:04.358Z,0.00
2022-10-16T02:02:04.824Z,0.00
2022-10-16T02:03:04.255Z,0.00
2022-10-16T02:04:04.264Z,0.00
2022-10-16T02:05:04.273Z,0.00
2022-10-16T02:06:04.274Z,0.00
2022-10-16T02:07:04.251Z,0.00
2022-10-16T02:08:05.660Z,0.00
2022-10-16T02:09:04.208Z,0.00
2022-10-16T02:10:04.315Z,0.00
2022-10-16T02:11:04.368Z,0.00
2022-10-16T02:12:04.200Z,0.00
2022-10-16T02:13:04.188Z,0.00
2022-10-16T02:14:04.220Z,0.00
2022-10-16T02:15:04.168Z,0.00
2022-10-16T02:16:04.156Z,0.00
2022-10-16T02:17:04.099Z,0.00
2022-10-16T02:18:04.099Z,0.00
2022-10-16T02:19:04.063Z,0.00
2022-10-16T02:20:04.096Z,0.00
2022-10-16T02:21:04.055Z,0.00
2022-10-16T02:22:04.039Z,0.00
2022-10-16T02:23:04.015Z,0.00
2022-10-16T02:24:04.018Z,0.00
2022-10-16T02:25:04.026Z,0.00
2022-10-16T02:26:04.035Z,0.00
2022-10-16T02:27:04.002Z,0.00
2022-10-16T02:28:03.999Z,0.00
2022-10-16T02:29:03.944Z,0.00
2022-10-16T02:30:03.944Z,0.00
2022-10-16T02:31:03.932Z,0.00
2022-10-16T02:32:03.923Z,0.00
2022-10-16T02:33:03.904Z,0.00
2022-10-16T02:34:03.919Z,0.00
2022-10-16T02:35:03.929Z,0.00
2022-10-16T02:36:03.876Z,0.00
2022-10-16T02:37:03.856Z,0.00
2022-10-16T02:38:03.881Z,0.00
2022-10-16T02:39:03.855Z,0.00
2022-10-16T02:40:03.847Z,0.00
2022-10-16T02:41:04.016Z,0.00
2022-10-16T02:42:04.015Z,0.00
2022-10-16T02:43:04.010Z,0.00
2022-10-16T02:44:03.888Z,0.00
2022-10-16T02:45:03.860Z,0.00
2022-10-16T02:46:03.755Z,0.00
2022-10-16T02:47:03.766Z,0.00
2022-10-16T02:48:03.737Z,0.00
2022-10-16T02:49:03.735Z,0.00
2022-10-16T02:50:03.725Z,0.00
2022-10-16T02:51:03.728Z,0.00
2022-10-16T02:52:03.695Z,0.00
2022-10-16T02:53:03.677Z,0.00
2022-10-16T02:54:03.667Z,0.00
2022-10-16T02:55:03.664Z,0.00
2022-10-16T02:56:03.667Z,0.00
2022-10-16T02:57:03.644Z,0.00
2022-10-16T02:58:03.643Z,0.00
2022-10-16T02:59:03.600Z,0.00
2022-10-16T03:00:03.615Z,0.00
2022-10-16T03:01:03.683Z,0.00
2022-10-16T03:02:03.592Z,0.00
2022-10-16T03:03:03.560Z,0.00
2022-10-16T03:04:03.559Z,0.00
2022-10-16T03:05:03.579Z,0.00
2022-10-16T03:06:03.541Z,0.00
2022-10-16T03:07:03.519Z,0.00
2022-10-16T03:08:03.535Z,0.00
2022-10-16T03:09:03.496Z,0.00
2022-10-16T03:10:03.501Z,0.00
2022-10-16T03:11:03.501Z,0.00
2022-10-16T03:12:03.488Z,0.00
2022-10-16T03:13:03.448Z,0.00
2022-10-16T03:14:03.448Z,0.00
2022-10-16T03:15:03.430Z,0.00
2022-10-16T03:16:03.459Z,0.00
2022-10-16T03:17:03.412Z,0.00
2022-10-16T03:18:03.401Z,0.00
2022-10-16T03:19:03.384Z,0.00
2022-10-16T03:20:03.389Z,0.00
2022-10-16T03:21:03.383Z,0.00
2022-10-16T03:22:03.349Z,0.00
2022-10-16T03:23:03.332Z,0.00
2022-10-16T03:24:03.332Z,0.00
2022-10-16T03:25:03.316Z,0.00
2022-10-16T03:26:03.324Z,0.00
2022-10-16T03:27:03.292Z,0.00
2022-10-16T03:28:03.292Z,0.00
2022-10-16T03:29:03.346Z,0.00
2022-10-16T03:30:03.260Z,0.00
2022-10-16T03:31:03.280Z,0.00
2022-10-16T03:32:03.260Z,0.00
2022-10-16T03:33:03.234Z,0.00
2022-10-16T03:34:03.228Z,0.00
2022-10-16T03:35:03.219Z,0.00
2022-10-16T03:36:03.209Z,0.00
2022-10-16T03:37:03.196Z,0.00
2022-10-16T03:38:03.187Z,0.00
2022-10-16T03:39:03.151Z,0.00
2022-10-16T03:40:03.154Z,0.00
2022-10-16T03:41:03.150Z,0.00
2022-10-16T03:42:03.126Z,0.00
2022-10-16T03:43:03.207Z,0.00
2022-10-16T03:44:03.119Z,0.00
2022-10-16T03:45:03.089Z,0.00
2022-10-16T03:46:03.103Z,0.00
2022-10-16T03:47:03.067Z,0.00
2022-10-16T03:48:03.072Z,0.00
2022-10-16T03:49:06.053Z,0.00
2022-10-16T03:50:04.049Z,0.00
2022-10-16T03:51:03.540Z,0.00
2022-10-16T03:52:03.012Z,0.00
2022-10-16T03:53:03.026Z,0.00
2022-10-16T03:54:02.996Z,0.00
2022-10-16T03:55:02.986Z,0.00
2022-10-16T03:56:02.978Z,0.00
2022-10-16T03:57:03.004Z,0.00
2022-10-16T03:58:02.958Z,0.00
2022-10-16T03:59:02.955Z,0.00
2022-10-16T04:00:02.930Z,0.00
2022-10-16T04:01:02.933Z,0.00
2022-10-16T04:02:03.584Z,0.00
2022-10-16T04:03:02.895Z,0.00
2022-10-16T04:04:02.878Z,0.00
2022-10-16T04:05:02.877Z,0.00
2022-10-16T04:06:02.868Z,0.00
2022-10-16T04:07:02.848Z,0.00
2022-10-16T04:08:02.861Z,0.00
2022-10-16T04:09:02.816Z,0.00
2022-10-16T04:10:02.818Z,0.00
2022-10-16T04:11:02.920Z,0.00
2022-10-16T04:12:02.813Z,0.00
2022-10-16T04:13:02.772Z,0.00
2022-10-16T04:14:02.767Z,0.00
2022-10-16T04:15:02.779Z,0.00
2022-10-16T04:16:02.745Z,0.00
2022-10-16T04:17:02.925Z,0.00
2022-10-16T04:18:02.717Z,0.00
2022-10-16T04:19:03.023Z,0.00
2022-10-16T04:20:02.705Z,0.00
2022-10-16T04:21:02.673Z,0.00
2022-10-16T04:22:02.682Z,0.00
2022-10-16T04:23:02.677Z,0.00
2022-10-16T04:24:02.657Z,0.00
2022-10-16T04:25:02.657Z,0.00
2022-10-16T04:26:02.637Z,0.00
2022-10-16T04:27:02.635Z,0.00
2022-10-16T04:28:02.669Z,0.00
2022-10-16T04:29:02.626Z,0.00
2022-10-16T04:30:02.632Z,0.00
2022-10-16T04:31:02.697Z,0.00
2022-10-16T04:32:02.570Z,0.00
2022-10-16T04:33:02.688Z,0.00
2022-10-16T04:34:02.570Z,0.00
2022-10-16T04:35:02.522Z,0.00
2022-10-16T04:36:02.549Z,0.00
2022-10-16T04:37:02.502Z,0.00
2022-10-16T04:38:02.489Z,0.00
2022-10-16T04:39:02.530Z,0.00
2022-10-16T04:40:02.475Z,0.00
2022-10-16T04:41:02.486Z,0.00
2022-10-16T04:42:02.470Z,0.00
2022-10-16T04:43:02.429Z,0.00
2022-10-16T04:44:02.417Z,0.00
2022-10-16T04:45:02.410Z,0.00
2022-10-16T04:46:02.410Z,0.00
2022-10-16T04:47:02.392Z,0.00
2022-10-16T04:48:02.409Z,0.00
2022-10-16T04:49:02.359Z,0.00
2022-10-16T04:50:02.358Z,0.00
2022-10-16T04:51:02.351Z,0.00
2022-10-16T04:52:02.351Z,0.00
2022-10-16T04:53:02.317Z,0.00
2022-10-16T04:54:02.317Z,0.00
2022-10-16T04:55:02.290Z,0.00
2022-10-16T04:56:02.289Z,0.00
2022-10-16T04:57:02.898Z,0.00
2022-10-16T04:58:02.330Z,0.00
2022-10-16T04:59:02.247Z,0.00
2022-10-16T05:00:02.257Z,0.00
2022-10-16T05:01:02.232Z,0.00
2022-10-16T05:02:02.231Z,0.00
2022-10-16T05:03:02.292Z,0.00
2022-10-16T05:04:02.205Z,0.00
2022-10-16T05:05:02.183Z,0.00
2022-10-16T05:06:02.182Z,0.00
2022-10-16T05:07:02.151Z,0.00
2022-10-16T05:08:02.174Z,0.00
2022-10-16T05:09:02.142Z,0.00
2022-10-16T05:10:02.134Z,0.00
2022-10-16T05:11:02.107Z,0.00
2022-10-16T05:12:02.122Z,0.00
2022-10-16T05:13:02.092Z,0.00
2022-10-16T05:14:02.144Z,0.00
2022-10-16T05:15:02.070Z,0.00
2022-10-16T05:16:02.062Z,0.00
2022-10-16T05:17:02.043Z,0.00
2022-10-16T05:18:02.058Z,0.00
2022-10-16T05:19:26.334Z,0.00
2022-10-16T05:20:03.594Z,0.00
2022-10-16T05:21:01.990Z,0.00
2022-10-16T05:22:02.001Z,0.00
2022-10-16T05:23:02.040Z,0.00
2022-10-16T05:24:02.003Z,0.00
2022-10-16T05:25:01.954Z,0.00
2022-10-16T05:26:01.988Z,0.00
2022-10-16T05:27:01.951Z,0.00
2022-10-16T05:28:01.954Z,0.00
2022-10-16T05:29:01.994Z,0.00
2022-10-16T05:30:01.931Z,0.00
2022-10-16T05:31:01.886Z,0.00
2022-10-16T05:32:02.102Z,0.00
2022-10-16T05:33:01.886Z,0.00
2022-10-16T05:34:01.862Z,0.00
2022-10-16T05:35:01.866Z,0.00
2022-10-16T05:36:01.843Z,0.00
2022-10-16T05:37:01.814Z,0.00
2022-10-16T05:38:01.814Z,0.00
2022-10-16T05:39:01.800Z,0.00
2022-10-16T05:40:02.142Z,0.00
2022-10-16T05:41:01.791Z,0.00
2022-10-16T05:42:01.787Z,0.00
2022-10-16T05:43:01.775Z,0.00
2022-10-16T05:44:01.747Z,0.00
2022-10-16T05:45:01.715Z,0.00
2022-10-16T05:46:01.718Z,0.00
2022-10-16T05:47:01.707Z,0.00
2022-10-16T05:48:01.726Z,0.00
2022-10-16T05:49:01.680Z,0.00
2022-10-16T05:50:01.687Z,0.00
2022-10-16T05:51:01.675Z,0.00
2022-10-16T05:52:01.676Z,0.00
2022-10-16T05:53:01.674Z,0.00
2022-10-16T05:54:01.644Z,0.00
2022-10-16T05:55:01.616Z,0.00
2022-10-16T05:56:01.606Z,0.00
2022-10-16T05:57:01.587Z,0.00
2022-10-16T05:58:01.587Z,0.00
2022-10-16T05:59:01.600Z,0.00
2022-10-16T06:00:01.701Z,0.00
2022-10-16T06:01:01.579Z,0.00
2022-10-16T06:02:01.569Z,0.00
2022-10-16T06:03:01.529Z,0.00
2022-10-16T06:04:01.632Z,0.00
2022-10-16T06:05:01.512Z,0.00
2022-10-16T06:06:01.499Z,0.00
2022-10-16T06:07:01.486Z,0.00
2022-10-16T06:08:01.466Z,5.62
2022-10-16T06:09:01.455Z,5.62
2022-10-16T06:10:01.460Z,5.62
2022-10-16T06:11:01.451Z,5.62
2022-10-16T06:12:01.443Z,5.62
2022-10-16T06:13:01.455Z,5.62
2022-10-16T06:14:01.399Z,5.62
2022-10-16T06:15:01.393Z,5.62
2022-10-16T06:16:01.409Z,5.62
2022-10-16T06:17:01.436Z,5.62
2022-10-16T06:18:01.474Z,5.62
2022-10-16T06:19:01.513Z,5.62
2022-10-16T06:20:01.927Z,5.62
2022-10-16T06:21:01.516Z,5.62
2022-10-16T06:22:01.579Z,5.62
2022-10-16T06:23:01.579Z,5.62
2022-10-16T06:24:01.699Z,11.25
2022-10-16T06:25:01.300Z,11.25
2022-10-16T06:26:01.291Z,11.25
2022-10-16T06:27:01.279Z,11.25
2022-10-16T06:28:01.247Z,11.25
2022-10-16T06:29:01.395Z,11.25
2022-10-16T06:30:01.283Z,11.25
2022-10-16T06:31:04.200Z,11.25
2022-10-16T06:32:02.251Z,11.25
2022-10-16T06:33:01.222Z,11.25
2022-10-16T06:34:01.248Z,11.25
2022-10-16T06:35:01.179Z,11.25
2022-10-16T06:36:01.153Z,11.25
2022-10-16T06:37:01.200Z,11.25
2022-10-16T06:38:01.179Z,11.25
2022-10-16T06:39:01.155Z,16.88
2022-10-16T06:40:01.363Z,16.88
2022-10-16T06:41:01.139Z,16.88
2022-10-16T06:43:01.088Z,16.88
2022-10-16T06:44:01.097Z,16.88
2022-10-16T06:45:01.140Z,16.88
2022-10-16T06:46:01.041Z,16.88
2022-10-16T06:47:01.047Z,16.88
2022-10-16T06:48:01.041Z,16.88
2022-10-16T06:49:01.031Z,16.88
2022-10-16T06:50:01.007Z,22.50
2022-10-16T06:51:01.023Z,22.50
2022-10-16T06:52:00.992Z,22.50
2022-10-16T06:53:01.004Z,22.50
2022-10-16T06:54:03.705Z,28.12
2022-10-16T06:55:00.952Z,22.50
2022-10-16T06:56:00.992Z,22.50
2022-10-16T06:57:00.957Z,22.50
2022-10-16T06:58:01.152Z,22.50
2022-10-16T06:59:00.975Z,22.50
2022-10-16T07:00:00.932Z,28.12
2022-10-16T07:01:00.964Z,28.12
2022-10-16T07:02:00.856Z,28.12
2022-10-16T07:03:00.904Z,28.12
2022-10-16T07:04:00.884Z,28.12
2022-10-16T07:05:00.896Z,28.12
2022-10-16T07:06:00.834Z,28.12
2022-10-16T07:07:01.145Z,28.12
2022-10-16T07:08:00.792Z,28.12
2022-10-16T07:09:00.860Z,33.75
2022-10-16T07:10:00.824Z,33.75
2022-10-16T07:11:00.797Z,33.75
2022-10-16T07:12:00.765Z,33.75
2022-10-16T07:13:00.744Z,28.12
2022-10-16T07:14:00.721Z,28.12
2022-10-16T07:15:00.790Z,28.12
2022-10-16T07:16:00.732Z,28.12
2022-10-16T07:17:00.778Z,28.12
2022-10-16T07:18:00.696Z,28.12
2022-10-16T07:19:01.146Z,28.12
2022-10-16T07:20:00.737Z,28.12
2022-10-16T07:21:00.673Z,22.50
2022-10-16T07:22:00.648Z,22.50
2022-10-16T07:23:00.657Z,22.50
2022-10-16T07:24:00.624Z,22.50
2022-10-16T07:25:00.684Z,22.50
2022-10-16T07:26:00.629Z,22.50
2022-10-16T07:27:00.693Z,22.50
2022-10-16T07:28:00.617Z,22.50
2022-10-16T07:29:00.668Z,22.50
2022-10-16T07:30:03.741Z,22.50
2022-10-16T07:31:01.597Z,22.50
2022-10-16T07:32:00.529Z,22.50
2022-10-16T07:33:00.520Z,22.50
2022-10-16T07:34:00.544Z,22.50
2022-10-16T07:35:00.508Z,22.50
2022-10-16T07:36:00.485Z,16.88
2022-10-16T07:37:00.477Z,16.88
2022-10-16T07:38:00.477Z,16.88
2022-10-16T07:39:00.676Z,16.88
2022-10-16T07:40:00.469Z,16.88
2022-10-16T07:41:00.444Z,22.50
2022-10-16T07:42:00.417Z,22.50
2022-10-16T07:43:00.400Z,22.50
2022-10-16T07:44:00.408Z,22.50
2022-10-16T07:45:00.406Z,22.50
2022-10-16T07:46:02.589Z,22.50
2022-10-16T07:47:01.357Z,22.50
2022-10-16T07:48:00.351Z,22.50
2022-10-16T07:49:01.197Z,22.50
2022-10-16T07:50:00.333Z,22.50
2022-10-16T07:51:00.317Z,22.50
2022-10-16T07:52:00.309Z,22.50
2022-10-16T07:53:00.297Z,28.12
2022-10-16T07:54:00.277Z,28.12
2022-10-16T07:55:00.359Z,33.75
2022-10-16T07:56:00.269Z,28.12
2022-10-16T07:57:00.261Z,33.75
2022-10-16T07:58:00.229Z,33.75
2022-10-16T07:59:00.229Z,33.75
2022-10-16T08:00:00.221Z,33.75
2022-10-16T08:01:00.249Z,33.75
2022-10-16T08:02:00.181Z,33.75
2022-10-16T08:03:00.198Z,33.75
2022-10-16T08:04:00.202Z,33.75
2022-10-16T08:05:00.165Z,39.38
2022-10-16T08:06:00.154Z,39.38
2022-10-16T08:07:00.150Z,39.38
2022-10-16T08:08:00.161Z,39.38
2022-10-16T08:09:00.121Z,39.38
2022-10-16T08:10:00.100Z,39.38
2022-10-16T08:11:00.198Z,39.38
2022-10-16T08:12:02.419Z,39.38
2022-10-16T08:13:00.331Z,39.38
2022-10-16T08:14:00.320Z,39.38
2022-10-16T08:15:00.102Z,39.38
2022-10-16T08:16:00.781Z,39.38
2022-10-16T08:17:00.029Z,39.38
2022-10-16T08:18:00.130Z,39.38
2022-10-16T08:19:00.013Z,39.38
2022-10-16T08:20:00.732Z,39.38
2022-10-16T08:20:59.973Z,39.38
2022-10-16T08:22:00.050Z,39.38
2022-10-16T08:22:59.963Z,39.38
2022-10-16T08:23:59.949Z,39.38
2022-10-16T08:24:59.933Z,39.38
2022-10-16T08:25:59.916Z,39.38
2022-10-16T08:26:59.941Z,39.38
2022-10-16T08:27:59.886Z,39.38
2022-10-16T08:29:00.186Z,39.38
2022-10-16T08:29:59.875Z,39.38
2022-10-16T08:30:59.866Z,39.38
2022-10-16T08:31:59.874Z,39.38
2022-10-16T08:32:59.866Z,39.38
2022-10-16T08:33:59.829Z,39.38
2022-10-16T08:34:59.829Z,45.00
2022-10-16T08:35:59.817Z,45.00
2022-10-16T08:36:59.805Z,45.00
2022-10-16T08:37:59.781Z,45.00
2022-10-16T08:38:59.793Z,45.00
2022-10-16T08:39:59.773Z,45.00
2022-10-16T08:40:59.782Z,45.00
2022-10-16T08:41:59.741Z,45.00
2022-10-16T08:42:59.726Z,45.00
2022-10-16T08:43:59.714Z,45.00
2022-10-16T08:44:59.706Z,45.00
2022-10-16T08:45:59.719Z,45.00
2022-10-16T08:46:59.727Z,45.00
2022-10-16T08:47:59.662Z,45.00
2022-10-16T08:48:59.737Z,45.00
2022-10-16T08:49:59.649Z,45.00
2022-10-16T08:50:59.638Z,45.00
2022-10-16T08:51:59.645Z,45.00
2022-10-16T08:52:59.638Z,45.00
2022-10-16T08:53:59.614Z,45.00
2022-10-16T08:54:59.872Z,50.62
2022-10-16T08:55:59.587Z,45.00
2022-10-16T08:56:59.577Z,45.00
2022-10-16T08:57:59.678Z,45.00
2022-10-16T08:59:01.623Z,45.00
2022-10-16T08:59:59.522Z,45.00
2022-10-16T09:00:59.589Z,33.75
2022-10-16T09:01:59.541Z,45.00
2022-10-16T09:02:59.507Z,45.00
2022-10-16T09:03:59.479Z,45.00
2022-10-16T09:04:59.476Z,45.00
2022-10-16T09:05:59.462Z,45.00
2022-10-16T09:06:59.439Z,50.62
2022-10-16T09:08:59.438Z,45.00
2022-10-16T09:09:59.416Z,50.62
2022-10-16T09:10:59.413Z,50.62
2022-10-16T09:11:59.689Z,50.62
2022-10-16T09:12:59.393Z,50.62
2022-10-16T09:13:59.375Z,50.62
2022-10-16T09:14:59.360Z,50.62
2022-10-16T09:15:59.342Z,50.62
2022-10-16T09:16:59.465Z,50.62
2022-10-16T09:17:59.358Z,50.62
2022-10-16T09:18:59.352Z,50.62
2022-10-16T09:19:59.319Z,50.62
2022-10-16T09:20:59.313Z,50.62
2022-10-16T09:21:59.268Z,50.62
2022-10-16T09:22:59.300Z,50.62
2022-10-16T09:23:59.260Z,50.62
2022-10-16T09:24:59.261Z,50.62
2022-10-16T09:25:59.248Z,50.62
2022-10-16T09:26:59.240Z,50.62
2022-10-16T09:27:59.233Z,50.62
2022-10-16T09:28:59.287Z,50.62
2022-10-16T09:29:59.993Z,50.62
2022-10-16T09:30:59.181Z,50.62
2022-10-16T09:31:59.161Z,50.62
2022-10-16T09:32:59.184Z,50.62
2022-10-16T09:33:59.161Z,50.62
2022-10-16T09:34:59.145Z,50.62
2022-10-16T09:35:59.137Z,50.62
2022-10-16T09:36:59.121Z,50.62
2022-10-16T09:37:59.093Z,50.62
2022-10-16T09:38:59.161Z,50.62
2022-10-16T09:40:00.561Z,50.62
2022-10-16T09:41:03.246Z,28.12
2022-10-16T09:41:59.074Z,50.62
2022-10-16T09:42:59.053Z,28.12
2022-10-16T09:43:59.026Z,50.62
2022-10-16T09:44:59.033Z,33.75
2022-10-16T09:45:59.026Z,50.62
2022-10-16T09:46:59.018Z,50.62
2022-10-16T09:47:59.005Z,50.62
2022-10-16T09:48:59.015Z,50.62
2022-10-16T09:49:58.990Z,50.62
2022-10-16T09:50:58.966Z,50.62
2022-10-16T09:51:59.114Z,50.62
2022-10-16T09:52:58.926Z,50.62
2022-10-16T09:53:58.935Z,56.25
2022-10-16T09:54:58.930Z,50.62
2022-10-16T09:55:58.970Z,50.62
2022-10-16T09:56:58.954Z,50.62
2022-10-16T09:57:58.987Z,50.62
2022-10-16T09:58:58.965Z,56.25
2022-10-16T09:59:58.974Z,56.25
2022-10-16T10:00:59.050Z,56.25
2022-10-16T10:01:58.998Z,56.25
2022-10-16T10:02:59.011Z,56.25
2022-10-16T10:03:58.959Z,61.88
2022-10-16T10:04:59.010Z,61.88
2022-10-16T10:06:02.039Z,61.88
2022-10-16T10:06:59.065Z,56.25
2022-10-16T10:07:59.042Z,56.25
2022-10-16T10:08:59.017Z,33.75
2022-10-16T10:09:58.833Z,56.25
2022-10-16T10:10:58.894Z,56.25
2022-10-16T10:11:58.788Z,56.25
2022-10-16T10:12:58.743Z,56.25
2022-10-16T10:13:58.691Z,56.25
2022-10-16T10:14:58.679Z,56.25
2022-10-16T10:15:58.667Z,61.88
2022-10-16T10:16:58.659Z,39.38
2022-10-16T10:17:58.667Z,67.50
2022-10-16T10:18:58.704Z,61.88
2022-10-16T10:19:58.620Z,61.88
2022-10-16T10:20:58.683Z,61.88
2022-10-16T10:21:58.642Z,61.88
2022-10-16T10:22:58.611Z,61.88
2022-10-16T10:23:58.571Z,61.88
2022-10-16T10:24:58.587Z,61.88
2022-10-16T10:25:58.571Z,67.50
2022-10-16T10:26:58.575Z,61.88
2022-10-16T10:27:58.579Z,61.88
2022-10-16T10:28:58.598Z,61.88
2022-10-16T10:29:58.511Z,61.88
2022-10-16T10:30:58.582Z,67.50
2022-10-16T10:31:58.519Z,67.50
2022-10-16T10:32:58.500Z,67.50
2022-10-16T10:33:58.483Z,61.88
2022-10-16T10:34:58.475Z,67.50
2022-10-16T10:35:58.443Z,67.50
2022-10-16T10:36:58.560Z,73.12
2022-10-16T10:37:58.483Z,61.88
2022-10-16T10:38:58.432Z,67.50
2022-10-16T10:39:58.392Z,61.88
2022-10-16T10:40:58.404Z,67.50
2022-10-16T10:41:58.403Z,67.50
2022-10-16T10:42:59.364Z,67.50
2022-10-16T10:43:58.403Z,61.88
2022-10-16T10:44:58.359Z,61.88
2022-10-16T10:45:58.337Z,61.88
2022-10-16T10:46:58.329Z,67.50
2022-10-16T10:47:58.339Z,67.50
2022-10-16T10:48:58.292Z,67.50
2022-10-16T10:49:58.315Z,67.50
2022-10-16T10:50:58.343Z,67.50
2022-10-16T10:51:58.361Z,67.50
2022-10-16T10:52:58.236Z,67.50
2022-10-16T10:53:58.244Z,67.50
2022-10-16T10:54:58.293Z,67.50
2022-10-16T10:55:58.218Z,67.50
2022-10-16T10:56:58.205Z,50.62
2022-10-16T10:57:58.224Z,67.50
2022-10-16T10:58:58.224Z,45.00
2022-10-16T10:59:58.188Z,67.50
2022-10-16T11:00:58.188Z,56.25
2022-10-16T11:01:58.233Z,45.00
2022-10-16T11:02:58.136Z,45.00
2022-10-16T11:03:58.665Z,73.12
2022-10-16T11:04:58.196Z,73.12
2022-10-16T11:05:58.180Z,67.50
2022-10-16T11:06:58.157Z,67.50
2022-10-16T11:07:58.266Z,67.50
2022-10-16T11:09:00.681Z,73.12
2022-10-16T11:09:58.231Z,39.38
2022-10-16T11:10:58.176Z,67.50
2022-10-16T11:11:58.448Z,39.38
2022-10-16T11:12:58.229Z,50.62
2022-10-16T11:13:58.180Z,73.12
2022-10-16T11:14:58.121Z,67.50
2022-10-16T11:15:58.217Z,67.50
2022-10-16T11:16:58.220Z,39.38
2022-10-16T11:17:58.630Z,39.38
2022-10-16T11:18:58.218Z,39.38
2022-10-16T11:19:57.968Z,67.50
2022-10-16T11:20:57.928Z,67.50
2022-10-16T11:21:57.944Z,67.50
2022-10-16T11:22:57.963Z,67.50
2022-10-16T11:23:57.975Z,73.12
2022-10-16T11:25:57.987Z,67.50
2022-10-16T11:26:57.877Z,67.50
2022-10-16T11:27:58.812Z,39.38
2022-10-16T11:29:19.799Z,39.38
2022-10-16T11:29:57.916Z,67.50
2022-10-16T11:30:57.820Z,33.75
2022-10-16T11:31:58.016Z,50.62
2022-10-16T11:32:57.803Z,33.75
2022-10-16T11:33:57.835Z,39.38
2022-10-16T11:34:57.785Z,33.75
2022-10-16T11:35:57.771Z,33.75
2022-10-16T11:36:57.802Z,39.38
2022-10-16T11:37:57.791Z,33.75
2022-10-16T11:38:58.543Z,45.00
2022-10-16T11:39:57.731Z,50.62
2022-10-16T11:40:57.731Z,67.50
2022-10-16T11:41:57.711Z,67.50
2022-10-16T11:42:57.711Z,67.50
2022-10-16T11:43:57.691Z,67.50
2022-10-16T11:44:57.664Z,39.38
2022-10-16T11:45:57.656Z,67.50
2022-10-16T11:47:00.621Z,73.12
2022-10-16T11:47:59.921Z,73.12
2022-10-16T11:48:57.652Z,73.12
2022-10-16T11:49:57.765Z,73.12
2022-10-16T11:50:57.595Z,67.50
2022-10-16T11:51:57.596Z,67.50
2022-10-16T11:52:57.576Z,67.50
2022-10-16T11:53:57.593Z,67.50
2022-10-16T11:54:57.572Z,73.12
2022-10-16T11:55:57.937Z,67.50
2022-10-16T11:56:57.527Z,67.50
2022-10-16T11:57:57.559Z,67.50
2022-10-16T11:58:57.544Z,78.75
2022-10-16T11:59:57.528Z,73.12
2022-10-16T12:00:57.512Z,67.50
2022-10-16T12:01:57.504Z,67.50
2022-10-16T12:02:57.468Z,73.12
2022-10-16T12:03:57.549Z,73.12
2022-10-16T12:04:57.476Z,78.75
2022-10-16T12:05:57.440Z,73.12
2022-10-16T12:06:57.417Z,78.75
2022-10-16T12:07:57.408Z,78.75
2022-10-16T12:08:57.463Z,67.50
2022-10-16T12:09:57.420Z,67.50
2022-10-16T12:10:57.381Z,67.50
2022-10-16T12:11:57.380Z,73.12
2022-10-16T12:12:57.347Z,73.12
2022-10-16T12:13:57.357Z,73.12
2022-10-16T12:15:16.007Z,78.75
2022-10-16T12:15:59.556Z,84.38
2022-10-16T12:16:57.390Z,84.38
2022-10-16T12:17:57.343Z,78.75
2022-10-16T12:18:57.279Z,73.12
2022-10-16T12:19:57.434Z,67.50
2022-10-16T12:20:57.266Z,67.50
2022-10-16T12:21:57.402Z,67.50
2022-10-16T12:22:57.250Z,73.12
2022-10-16T12:23:57.243Z,67.50
2022-10-16T12:24:57.216Z,67.50
2022-10-16T12:25:57.234Z,78.75
2022-10-16T12:26:57.219Z,90.00
2022-10-16T12:27:57.202Z,90.00
2022-10-16T12:28:57.391Z,84.38
2022-10-16T12:29:58.114Z,73.12
2022-10-16T12:30:57.150Z,73.12
2022-10-16T12:31:58.743Z,78.75
2022-10-16T12:32:57.215Z,78.75
2022-10-16T12:33:57.164Z,84.38
2022-10-16T12:34:57.288Z,84.38
2022-10-16T12:35:57.122Z,84.38
2022-10-16T12:36:57.091Z,73.12
2022-10-16T12:37:57.086Z,67.50
2022-10-16T12:38:57.053Z,73.12
2022-10-16T12:39:57.058Z,84.38
2022-10-16T12:40:57.050Z,78.75
2022-10-16T12:41:57.059Z,73.12
2022-10-16T12:42:57.023Z,67.50
2022-10-16T12:43:57.085Z,67.50
2022-10-16T12:44:56.986Z,67.50
2022-10-16T12:45:57.003Z,67.50
2022-10-16T12:46:56.987Z,67.50
2022-10-16T12:47:57.015Z,67.50
2022-10-16T12:49:07.302Z,67.50
2022-10-16T12:49:58.783Z,67.50
2022-10-16T12:50:56.951Z,67.50
2022-10-16T12:51:56.955Z,67.50
2022-10-16T12:52:57.014Z,67.50
2022-10-16T12:53:56.947Z,73.12
2022-10-16T12:54:57.007Z,73.12
2022-10-16T12:55:57.074Z,73.12
2022-10-16T12:56:57.099Z,73.12
2022-10-16T12:57:57.142Z,73.12
2022-10-16T12:58:56.891Z,73.12
2022-10-16T12:59:57.100Z,67.50
2022-10-16T13:00:56.846Z,73.12
2022-10-16T13:01:56.810Z,73.12
2022-10-16T13:02:56.832Z,45.00
2022-10-16T13:03:56.789Z,73.12
2022-10-16T13:04:56.778Z,73.12
2022-10-16T13:05:56.791Z,67.50
2022-10-16T13:06:56.750Z,73.12
2022-10-16T13:07:56.754Z,73.12
2022-10-16T13:08:56.758Z,73.12